Atlanta, Texas
Current Conditions -  °F | °C
As of 7:53 AM on Sunday 21 Dec 2014 (Local Time) from KTXK Reporting Station
Haze Haze  
Wind Chill: 32°   Ceiling: 4400
Heat Index: 37°   Visibility: 2mi
Dew Point: 36°   Wind: 6mph
Humidity: 96%   Direction: 70°ENE
Pressure: 30.17"   Gusts: NA
Location:  33.12°N, 94.17°W
Report Text: KTXK 211353Z 07005KT 2SM BR OVC044 03/02 A3017 RMK AO2 SLP217 T00280022
Loading
Personal Weather Stations






























Interactive Weather Map New forecast layout! Learn more

10-Day Weather Forecast

Advertisements
Track Severe Weather on mobile